Terminal Aerodrome Forecast
Issued by NWS

Home | Current Version | Previous Version | Text Only | Print | Product List | Glossary On
Versions: 1 2 3 4 5 6 7 8 9 10 11 12 13
000
FTUS46 KSEW 202320
TAFBLI
TAF
KBLI 202320Z 2100/2124 16011KT P6SM BKN090
     FM210200 18009KT P6SM SCT040 BKN080
     FM211300 16004KT P6SM BKN035 BKN150
     FM211800 17009KT P6SM SCT040 BKN100
     FM212200 19006KT P6SM OVC100=

USA.gov is the U.S. government's official web portal to all federal, state and local government web resources and services.